Trout, West Virginia
Current Conditions -  °F | °C
As of 1:35 AM on Saturday 29 Nov 2014 (Local Time) from KLWB Reporting Station
Scattered Clouds Scattered Clouds  
Wind Chill: 19°   Ceiling: Unl
Heat Index: 19°   Visibility: 10mi
Dew Point: 16°   Wind: 3mph
Humidity: 88%   Direction: 20°NNE
Pressure: 30.17"   Gusts: NA
Location:  37.9493°N, 80.5132°W
Report Text: KLWB 290635Z AUTO 02003KT 10SM SCT100 M07/M09 A3017 RMK AO2 T10721089
Loading
Personal Weather Stations






























Interactive Weather Map New forecast layout! Learn more

10-Day Weather Forecast

Advertisements
Track Severe Weather on mobile